Time;durP1;ratioP1;P1;durP2;ratioP2;P2;SDS_P1;SDS_P2;PMS_P1;PMS_P2;Temp;Humidity;BMP_temperature;BMP_pressure;BME280_temperature;BME280_humidity;BME280_pressure;Samples;Min_cycle;Max_cycle;Signal;HPM_P1;HPM_P2
2023/04/19 00:01:52;;;;;;;;;;;7.70;99.90;;;;;;5022016;28;19920;-73
2023/04/19 00:04:19;;;;;;;;;;;7.60;99.90;;;;;;5018107;28;19909;-73
2023/04/19 00:06:46;;;;;;;;;;;7.60;99.90;;;;;;5017206;28;20369;-71
2023/04/19 00:09:11;;;;;;;;;;;7.60;99.90;;;;;;5016322;28;19960;-72
2023/04/19 00:11:37;;;;;;;;;;;7.60;99.90;;;;;;5017622;28;19964;-70
2023/04/19 00:14:05;;;;;;;;;;;7.60;99.90;;;;;;5003578;28;19920;-72
2023/04/19 00:16:31;;;;;;;;;;;7.50;99.90;;;;;;5017907;28;19918;-71
2023/04/19 00:18:57;;;;;;;;;;;7.50;99.90;;;;;;5020137;28;19913;-73
2023/04/19 00:21:22;;;;;;;;;;;7.50;99.90;;;;;;5015796;28;19912;-71
2023/04/19 00:23:48;;;;;;;;;;;7.50;99.90;;;;;;5013702;28;20343;-71
2023/04/19 00:26:14;;;;;;;;;;;7.50;99.90;;;;;;5015194;28;19925;-76
2023/04/19 00:28:40;;;;;;;;;;;7.50;99.90;;;;;;5022315;28;20480;-75
2023/04/19 00:31:06;;;;;;;;;;;7.40;99.90;;;;;;5002753;28;19924;-72
2023/04/19 00:33:32;;;;;;;;;;;7.40;99.90;;;;;;5021241;28;20557;-70
2023/04/19 00:35:57;;;;;;;;;;;7.30;99.90;;;;;;5015174;28;19945;-71
2023/04/19 00:38:23;;;;;;;;;;;7.30;99.90;;;;;;5018328;28;19960;-71
2023/04/19 00:40:50;;;;;;;;;;;7.30;99.90;;;;;;5016670;28;20397;-71
2023/04/19 00:43:16;;;;;;;;;;;7.20;99.90;;;;;;5020949;28;20018;-72
2023/04/19 00:45:41;;;;;;;;;;;7.20;99.90;;;;;;5017114;28;19909;-71
2023/04/19 00:48:07;;;;;;;;;;;7.20;99.90;;;;;;5015913;28;19967;-71
2023/04/19 00:50:34;;;;;;;;;;;7.20;99.90;;;;;;5018590;28;20297;-71
2023/04/19 00:53:01;;;;;;;;;;;7.20;99.90;;;;;;5013791;28;19928;-71
2023/04/19 00:55:32;;;;;;;;;;;7.20;99.90;;;;;;5018339;28;19956;-75
2023/04/19 00:57:59;;;;;;;;;;;7.20;99.90;;;;;;5019853;28;20393;-71
2023/04/19 01:00:25;;;;;;;;;;;7.10;99.90;;;;;;5018737;28;19912;-74
2023/04/19 01:02:51;;;;;;;;;;;7.10;99.90;;;;;;5016745;28;20051;-71
2023/04/19 01:05:17;;;;;;;;;;;7.10;99.90;;;;;;5030139;28;19913;-72
2023/04/19 01:07:42;;;;;;;;;;;7.10;99.90;;;;;;5017455;28;19921;-75
2023/04/19 01:10:08;;;;;;;;;;;7.20;99.90;;;;;;5012765;28;19971;-73
2023/04/19 01:12:34;;;;;;;;;;;7.10;99.90;;;;;;5015139;28;20004;-71
2023/04/19 01:15:00;;;;;;;;;;;7.00;99.90;;;;;;5016106;28;19940;-72
2023/04/19 01:17:26;;;;;;;;;;;7.00;99.90;;;;;;5018473;28;19913;-71
2023/04/19 01:20:02;;;;;;;;;;;7.00;99.90;;;;;;5016203;28;19913;-71
2023/04/19 01:22:29;;;;;;;;;;;6.90;99.90;;;;;;5012514;28;19933;-73
2023/04/19 01:24:55;;;;;;;;;;;7.00;99.90;;;;;;5014007;28;20028;-73
2023/04/19 01:27:22;;;;;;;;;;;7.00;99.90;;;;;;5015617;28;19913;-72
2023/04/19 01:29:48;;;;;;;;;;;7.00;99.90;;;;;;5031149;28;19913;-71
2023/04/19 01:32:14;;;;;;;;;;;7.00;99.90;;;;;;5013017;28;19909;-71
2023/04/19 01:34:39;;;;;;;;;;;7.00;99.90;;;;;;5013724;28;19909;-70
2023/04/19 01:37:05;;;;;;;;;;;7.00;99.90;;;;;;5011478;28;19917;-70
2023/04/19 01:39:31;;;;;;;;;;;6.90;99.90;;;;;;5013418;28;19915;-70
2023/04/19 01:41:57;;;;;;;;;;;6.90;99.90;;;;;;5014284;28;19913;-72
2023/04/19 01:44:22;;;;;;;;;;;6.90;99.90;;;;;;5013114;28;20336;-69
2023/04/19 01:46:48;;;;;;;;;;;6.90;99.90;;;;;;5017576;28;19917;-71
2023/04/19 01:49:13;;;;;;;;;;;6.90;99.90;;;;;;5010685;28;20477;-71
2023/04/19 01:51:39;;;;;;;;;;;6.80;99.90;;;;;;5014335;28;19909;-72
2023/04/19 01:54:05;;;;;;;;;;;6.90;99.90;;;;;;5014346;28;19913;-70
2023/04/19 01:56:31;;;;;;;;;;;6.80;99.90;;;;;;5015892;28;19909;-71
2023/04/19 01:58:57;;;;;;;;;;;6.90;99.90;;;;;;5013075;28;19917;-71
2023/04/19 02:01:23;;;;;;;;;;;6.80;99.90;;;;;;5014896;28;19914;-71
2023/04/19 02:03:48;;;;;;;;;;;6.80;99.90;;;;;;5014778;28;20016;-72
2023/04/19 02:06:14;;;;;;;;;;;6.90;99.90;;;;;;5017810;28;20357;-74
2023/04/19 02:08:41;;;;;;;;;;;6.90;99.90;;;;;;5016295;28;19924;-76
2023/04/19 02:11:07;;;;;;;;;;;6.90;99.90;;;;;;5048858;28;19917;-74
2023/04/19 02:13:33;;;;;;;;;;;6.80;99.90;;;;;;5016224;28;19916;-71
2023/04/19 02:16:03;;;;;;;;;;;6.80;99.90;;;;;;4992355;28;19913;-71
2023/04/19 02:18:28;;;;;;;;;;;6.80;99.90;;;;;;5013680;28;19913;-71
2023/04/19 02:20:55;;;;;;;;;;;6.90;99.90;;;;;;4995644;28;19909;-73
2023/04/19 02:23:21;;;;;;;;;;;6.90;99.90;;;;;;5012636;28;20043;-76
2023/04/19 02:25:46;;;;;;;;;;;6.90;99.90;;;;;;5014913;28;20012;-79
2023/04/19 02:28:12;;;;;;;;;;;6.80;99.90;;;;;;5014635;28;19913;-70
2023/04/19 02:30:37;;;;;;;;;;;6.80;99.90;;;;;;5010366;28;19913;-72
2023/04/19 02:33:03;;;;;;;;;;;6.80;99.90;;;;;;5012927;28;19959;-70
2023/04/19 02:35:28;;;;;;;;;;;6.80;99.90;;;;;;5012284;28;20309;-74
2023/04/19 02:37:54;;;;;;;;;;;6.80;99.90;;;;;;5017652;28;19967;-70
2023/04/19 02:40:21;;;;;;;;;;;6.70;99.90;;;;;;5015477;28;20526;-71
2023/04/19 02:42:48;;;;;;;;;;;6.70;99.90;;;;;;4998147;28;20061;-72
2023/04/19 02:45:14;;;;;;;;;;;6.70;99.90;;;;;;4996906;28;20309;-70
2023/04/19 02:47:39;;;;;;;;;;;6.70;99.90;;;;;;5016851;28;19913;-70
2023/04/19 02:50:05;;;;;;;;;;;6.70;99.90;;;;;;5016313;28;20012;-71
2023/04/19 02:52:30;;;;;;;;;;;6.70;99.90;;;;;;5023426;28;19910;-71
2023/04/19 02:54:56;;;;;;;;;;;6.70;99.90;;;;;;5014358;28;19916;-76
2023/04/19 02:57:22;;;;;;;;;;;6.70;99.90;;;;;;5012297;28;20003;-71
2023/04/19 02:59:47;;;;;;;;;;;6.70;99.90;;;;;;5019092;28;20425;-71
2023/04/19 03:02:13;;;;;;;;;;;6.60;99.90;;;;;;5016286;28;19920;-72
2023/04/19 03:04:38;;;;;;;;;;;6.60;99.90;;;;;;5020289;28;19916;-71
2023/04/19 03:07:05;;;;;;;;;;;6.60;99.90;;;;;;5016105;28;19921;-70
2023/04/19 03:09:30;;;;;;;;;;;6.60;99.90;;;;;;5014843;28;19936;-70
2023/04/19 03:11:56;;;;;;;;;;;6.60;99.90;;;;;;5020948;28;19959;-70
2023/04/19 03:14:22;;;;;;;;;;;6.60;99.90;;;;;;5017133;28;19913;-70
2023/04/19 03:16:47;;;;;;;;;;;6.50;99.90;;;;;;5016074;28;19909;-70
2023/04/19 03:19:13;;;;;;;;;;;6.50;99.90;;;;;;5017961;28;20441;-70
2023/04/19 03:21:38;;;;;;;;;;;6.60;99.90;;;;;;5011948;28;20380;-72
2023/04/19 03:24:04;;;;;;;;;;;6.50;99.90;;;;;;5016772;28;19909;-72
2023/04/19 03:26:32;;;;;;;;;;;6.50;99.90;;;;;;5049013;28;19924;-71
2023/04/19 03:29:00;;;;;;;;;;;6.50;99.90;;;;;;5019858;28;20008;-70
2023/04/19 03:31:25;;;;;;;;;;;6.50;99.90;;;;;;5049030;28;19924;-71
2023/04/19 03:33:54;;;;;;;;;;;6.40;99.90;;;;;;5019150;28;19909;-73
2023/04/19 03:36:20;;;;;;;;;;;6.40;99.90;;;;;;5015140;28;20016;-70
2023/04/19 03:38:46;;;;;;;;;;;6.40;99.90;;;;;;5016815;28;19925;-70
2023/04/19 03:41:18;;;;;;;;;;;6.40;99.90;;;;;;5017145;28;20317;-73
2023/04/19 03:43:44;;;;;;;;;;;6.40;99.90;;;;;;5051311;28;19949;-72
2023/04/19 03:46:09;;;;;;;;;;;6.40;99.90;;;;;;5019742;28;19947;-72
2023/04/19 03:48:35;;;;;;;;;;;6.40;99.90;;;;;;5016351;28;19913;-72
2023/04/19 03:51:00;;;;;;;;;;;6.40;99.90;;;;;;5019291;28;19916;-76
2023/04/19 03:53:26;;;;;;;;;;;6.40;99.90;;;;;;5016744;28;20380;-72
2023/04/19 03:55:52;;;;;;;;;;;6.40;99.90;;;;;;5010696;28;19952;-71
2023/04/19 03:58:17;;;;;;;;;;;6.40;99.90;;;;;;5019534;28;19909;-71
2023/04/19 04:00:43;;;;;;;;;;;6.40;99.90;;;;;;5034635;28;19936;-71
2023/04/19 04:03:08;;;;;;;;;;;6.40;99.90;;;;;;5017067;28;20313;-76
2023/04/19 04:05:34;;;;;;;;;;;6.30;99.90;;;;;;5013762;28;19935;-71
2023/04/19 04:08:00;;;;;;;;;;;6.30;99.90;;;;;;5018097;28;20222;-72
2023/04/19 04:10:26;;;;;;;;;;;6.30;99.90;;;;;;4998584;28;19916;-72
2023/04/19 04:12:51;;;;;;;;;;;6.30;99.90;;;;;;5015263;28;20004;-77
2023/04/19 04:15:17;;;;;;;;;;;6.40;99.90;;;;;;5015992;28;20596;-72
2023/04/19 04:17:42;;;;;;;;;;;6.40;99.90;;;;;;5019664;28;19936;-72
2023/04/19 04:20:10;;;;;;;;;;;6.30;99.90;;;;;;5015477;28;20252;-71
2023/04/19 04:22:38;;;;;;;;;;;6.20;99.90;;;;;;5018031;28;20404;-72
2023/04/19 04:25:04;;;;;;;;;;;6.20;99.90;;;;;;5016113;28;19945;-72
2023/04/19 04:27:30;;;;;;;;;;;6.30;99.90;;;;;;5009249;28;19987;-71
2023/04/19 04:29:55;;;;;;;;;;;6.30;99.90;;;;;;5012973;28;19921;-70
2023/04/19 04:32:21;;;;;;;;;;;6.30;99.90;;;;;;5013664;28;19971;-71
2023/04/19 04:34:49;;;;;;;;;;;6.40;99.90;;;;;;5016208;28;19909;-70
2023/04/19 04:37:15;;;;;;;;;;;6.40;99.90;;;;;;5011924;28;19924;-70
2023/04/19 04:39:40;;;;;;;;;;;6.40;99.90;;;;;;5010449;28;19914;-70
2023/04/19 04:42:09;;;;;;;;;;;6.40;99.90;;;;;;5009905;28;19932;-71
2023/04/19 04:44:35;;;;;;;;;;;6.40;99.90;;;;;;5010972;28;19913;-77
2023/04/19 04:47:01;;;;;;;;;;;6.40;99.90;;;;;;5014630;28;20292;-72
2023/04/19 04:49:26;;;;;;;;;;;6.40;99.90;;;;;;5010395;28;19923;-71
2023/04/19 04:51:52;;;;;;;;;;;6.50;99.90;;;;;;5009739;28;19916;-71
2023/04/19 04:54:17;;;;;;;;;;;6.40;99.90;;;;;;5011473;28;19918;-72
2023/04/19 04:56:43;;;;;;;;;;;6.40;99.90;;;;;;4991015;28;20008;-70
2023/04/19 04:59:10;;;;;;;;;;;6.30;99.90;;;;;;5012953;28;19940;-74
2023/04/19 05:01:35;;;;;;;;;;;6.30;99.90;;;;;;5011423;28;19967;-71
2023/04/19 05:04:01;;;;;;;;;;;6.40;99.90;;;;;;5014693;28;20349;-73
2023/04/19 05:06:29;;;;;;;;;;;6.40;99.90;;;;;;5014610;28;20420;-73
2023/04/19 05:08:54;;;;;;;;;;;6.40;99.90;;;;;;5014823;28;19917;-72
2023/04/19 05:11:20;;;;;;;;;;;6.50;99.90;;;;;;5012507;28;19924;-71
2023/04/19 05:13:45;;;;;;;;;;;6.50;99.90;;;;;;5014870;28;19948;-72
2023/04/19 05:16:11;;;;;;;;;;;6.60;99.90;;;;;;5019095;28;19914;-72
2023/04/19 05:18:36;;;;;;;;;;;6.60;99.90;;;;;;5022793;28;19916;-75
2023/04/19 05:21:02;;;;;;;;;;;6.70;99.90;;;;;;5022430;28;19912;-72
2023/04/19 05:23:28;;;;;;;;;;;6.70;99.90;;;;;;5015239;28;19916;-81
2023/04/19 05:25:53;;;;;;;;;;;6.70;99.90;;;;;;5022557;28;19912;-74
2023/04/19 05:28:19;;;;;;;;;;;6.70;99.90;;;;;;5015156;28;19909;-70
2023/04/19 05:30:45;;;;;;;;;;;6.80;99.90;;;;;;5013135;28;19917;-70
2023/04/19 05:33:10;;;;;;;;;;;6.80;99.90;;;;;;4997046;28;19913;-72
2023/04/19 05:35:36;;;;;;;;;;;6.90;99.90;;;;;;5041853;28;19948;-72
2023/04/19 05:38:02;;;;;;;;;;;6.90;99.90;;;;;;5015186;28;19909;-71
2023/04/19 05:40:28;;;;;;;;;;;6.90;99.90;;;;;;5014181;28;19910;-71
2023/04/19 05:42:54;;;;;;;;;;;6.90;99.90;;;;;;5012905;28;20293;-74
2023/04/19 05:45:20;;;;;;;;;;;6.90;99.90;;;;;;5015229;28;19909;-73
2023/04/19 05:47:46;;;;;;;;;;;7.00;99.90;;;;;;5015234;28;19932;-72
2023/04/19 05:50:13;;;;;;;;;;;7.10;99.90;;;;;;5000608;28;21387;-72
2023/04/19 05:52:39;;;;;;;;;;;7.10;99.90;;;;;;5008331;28;20366;-72
2023/04/19 05:55:09;;;;;;;;;;;7.10;99.90;;;;;;5012610;28;19923;-72
2023/04/19 05:57:34;;;;;;;;;;;7.10;99.90;;;;;;5020599;28;20000;-73
2023/04/19 06:00:01;;;;;;;;;;;7.20;99.90;;;;;;5017394;28;19946;-73
2023/04/19 06:02:27;;;;;;;;;;;7.20;99.90;;;;;;5013818;28;19916;-73
2023/04/19 06:04:53;;;;;;;;;;;7.20;99.90;;;;;;5016118;28;19914;-73
2023/04/19 06:07:18;;;;;;;;;;;7.30;99.90;;;;;;5023085;28;19936;-76
2023/04/19 06:09:44;;;;;;;;;;;7.30;99.90;;;;;;5012559;28;20439;-76
2023/04/19 06:12:09;;;;;;;;;;;7.40;99.90;;;;;;5014728;28;20005;-73
2023/04/19 06:14:36;;;;;;;;;;;7.50;99.90;;;;;;5015089;28;19913;-73
2023/04/19 06:17:03;;;;;;;;;;;7.50;99.90;;;;;;5050499;28;19915;-75
2023/04/19 06:19:28;;;;;;;;;;;7.60;99.90;;;;;;5018403;28;19909;-75
2023/04/19 06:21:54;;;;;;;;;;;7.60;99.90;;;;;;5016048;28;20310;-75
2023/04/19 06:24:20;;;;;;;;;;;7.70;99.90;;;;;;5018303;28;19971;-71
2023/04/19 06:26:48;;;;;;;;;;;7.70;99.90;;;;;;5015597;28;20000;-76
2023/04/19 06:29:16;;;;;;;;;;;7.80;99.90;;;;;;5014692;28;19963;-71
2023/04/19 06:31:42;;;;;;;;;;;7.80;99.90;;;;;;5015020;28;19952;-73
2023/04/19 06:34:09;;;;;;;;;;;7.80;99.90;;;;;;5018037;28;19953;-73
2023/04/19 06:36:35;;;;;;;;;;;7.90;99.40;;;;;;5019599;28;19941;-78
2023/04/19 06:39:00;;;;;;;;;;;7.90;99.80;;;;;;5017970;28;19975;-76
2023/04/19 06:41:26;;;;;;;;;;;7.90;99.90;;;;;;5016823;28;20502;-72
2023/04/19 06:43:52;;;;;;;;;;;7.90;99.90;;;;;;5018633;28;19967;-72
2023/04/19 06:46:17;;;;;;;;;;;8.00;99.50;;;;;;5015336;28;19912;-71
2023/04/19 06:48:43;;;;;;;;;;;8.00;99.60;;;;;;5019160;28;19909;-79
2023/04/19 06:51:08;;;;;;;;;;;8.10;99.60;;;;;;5019343;28;19920;-72
2023/04/19 06:53:34;;;;;;;;;;;8.10;99.80;;;;;;5020552;28;19975;-71
2023/04/19 06:56:01;;;;;;;;;;;8.20;99.50;;;;;;5017707;28;20381;-74
2023/04/19 06:58:27;;;;;;;;;;;8.20;98.90;;;;;;5022036;28;19909;-76
2023/04/19 07:00:53;;;;;;;;;;;8.20;98.80;;;;;;5013032;28;20427;-74
2023/04/19 07:03:19;;;;;;;;;;;8.30;98.60;;;;;;5020311;28;19913;-77
2023/04/19 07:05:45;;;;;;;;;;;8.40;97.50;;;;;;5021108;28;20009;-71
2023/04/19 07:08:10;;;;;;;;;;;8.40;97.10;;;;;;5018749;28;20103;-73
2023/04/19 07:10:36;;;;;;;;;;;8.50;97.50;;;;;;5017701;28;19931;-77
2023/04/19 07:13:02;;;;;;;;;;;8.50;97.10;;;;;;5021872;28;19909;-73
2023/04/19 07:15:27;;;;;;;;;;;8.60;95.70;;;;;;5015544;28;20365;-77
2023/04/19 07:17:53;;;;;;;;;;;8.70;95.90;;;;;;5017279;28;20342;-74
2023/04/19 07:20:19;;;;;;;;;;;8.80;94.80;;;;;;5012687;28;19919;-72
2023/04/19 07:22:45;;;;;;;;;;;8.80;94.70;;;;;;5000337;28;19978;-73
2023/04/19 07:25:11;;;;;;;;;;;8.80;94.60;;;;;;5016780;28;20436;-74
2023/04/19 07:27:36;;;;;;;;;;;8.80;95.20;;;;;;5020421;28;19924;-74
2023/04/19 07:30:02;;;;;;;;;;;8.90;94.30;;;;;;5018725;28;19913;-74
2023/04/19 07:32:30;;;;;;;;;;;9.00;94.50;;;;;;5014259;28;20298;-76
2023/04/19 07:34:55;;;;;;;;;;;9.10;94.00;;;;;;5020502;28;19917;-73
2023/04/19 07:37:21;;;;;;;;;;;9.20;93.80;;;;;;5017695;28;20094;-75
2023/04/19 07:39:47;;;;;;;;;;;9.20;93.20;;;;;;5024037;28;19940;-74
2023/04/19 07:42:12;;;;;;;;;;;9.20;93.20;;;;;;5016603;28;19943;-73
2023/04/19 07:44:38;;;;;;;;;;;9.30;93.30;;;;;;5020373;28;20484;-77
2023/04/19 07:47:05;;;;;;;;;;;9.30;91.90;;;;;;5015596;28;19913;-74
2023/04/19 07:49:32;;;;;;;;;;;9.40;91.80;;;;;;5021976;28;19921;-75
2023/04/19 07:52:02;;;;;;;;;;;9.40;92.00;;;;;;5022494;28;20436;-75
2023/04/19 07:54:30;;;;;;;;;;;9.50;92.00;;;;;;5019052;28;20008;-76
2023/04/19 07:56:57;;;;;;;;;;;9.50;91.80;;;;;;5004616;28;19916;-74
2023/04/19 07:59:23;;;;;;;;;;;9.60;90.30;;;;;;5019343;28;19905;-72
2023/04/19 08:01:50;;;;;;;;;;;9.70;90.00;;;;;;5016172;28;20012;-77
2023/04/19 08:04:18;;;;;;;;;;;9.70;90.00;;;;;;5011944;28;19923;-72
2023/04/19 08:06:44;;;;;;;;;;;9.80;89.40;;;;;;4993953;28;19917;-71
2023/04/19 08:09:10;;;;;;;;;;;9.80;88.50;;;;;;5018795;28;19913;-72
2023/04/19 08:11:36;;;;;;;;;;;9.80;89.00;;;;;;5019398;28;19913;-73
2023/04/19 08:14:03;;;;;;;;;;;9.90;87.00;;;;;;5026349;28;19909;-74
2023/04/19 08:16:29;;;;;;;;;;;10.00;86.70;;;;;;5019339;28;20274;-74
2023/04/19 08:18:54;;;;;;;;;;;10.00;86.50;;;;;;5021279;28;19933;-74
2023/04/19 08:21:21;;;;;;;;;;;10.10;84.90;;;;;;5020401;28;19952;-73
2023/04/19 08:23:48;;;;;;;;;;;10.10;84.60;;;;;;5018254;28;19913;-75
2023/04/19 08:26:14;;;;;;;;;;;10.20;83.60;;;;;;5018963;28;19906;-72
2023/04/19 08:28:39;;;;;;;;;;;10.20;83.40;;;;;;5040919;28;19909;-73
2023/04/19 08:31:08;;;;;;;;;;;10.20;82.90;;;;;;5019390;28;19992;-72
2023/04/19 08:33:33;;;;;;;;;;;10.20;82.80;;;;;;5018880;28;19932;-75
2023/04/19 08:35:59;;;;;;;;;;;10.20;83.60;;;;;;5020102;28;19909;-75
2023/04/19 08:38:25;;;;;;;;;;;10.30;83.40;;;;;;5019468;28;20344;-73
2023/04/19 08:40:52;;;;;;;;;;;10.30;83.20;;;;;;5021859;28;19912;-72
2023/04/19 08:43:18;;;;;;;;;;;10.30;83.50;;;;;;5016418;28;20301;-78
2023/04/19 08:45:48;;;;;;;;;;;10.40;81.80;;;;;;5020613;28;20003;-73
2023/04/19 08:48:14;;;;;;;;;;;10.50;81.70;;;;;;5015379;28;19916;-72
2023/04/19 08:50:44;;;;;;;;;;;10.50;80.60;;;;;;5018479;28;20480;-72
2023/04/19 08:53:10;;;;;;;;;;;10.60;79.60;;;;;;5017388;28;20289;-72
2023/04/19 08:55:37;;;;;;;;;;;10.60;79.50;;;;;;5032813;28;19918;-76
2023/04/19 08:58:03;;;;;;;;;;;10.60;78.70;;;;;;5018543;28;19943;-72
2023/04/19 09:00:30;;;;;;;;;;;10.60;78.20;;;;;;5017734;28;19905;-75
2023/04/19 09:02:57;;;;;;;;;;;10.70;77.30;;;;;;5019434;28;20395;-74
2023/04/19 09:05:22;;;;;;;;;;;10.70;77.50;;;;;;5021390;28;19909;-75
2023/04/19 09:07:48;;;;;;;;;;;10.70;77.30;;;;;;5011500;28;19928;-76
2023/04/19 09:10:15;;;;;;;;;;;10.80;75.20;;;;;;5017560;28;19983;-73
2023/04/19 09:12:41;;;;;;;;;;;10.80;75.60;;;;;;5019939;28;19908;-73
2023/04/19 09:15:08;;;;;;;;;;;10.80;76.80;;;;;;5018551;28;19987;-73
2023/04/19 09:17:34;;;;;;;;;;;10.90;74.60;;;;;;5015563;28;19919;-73
2023/04/19 09:19:59;;;;;;;;;;;10.90;74.00;;;;;;5018258;28;20004;-73
2023/04/19 09:22:25;;;;;;;;;;;11.00;71.70;;;;;;5016324;28;20007;-73
2023/04/19 09:24:51;;;;;;;;;;;11.00;71.30;;;;;;5014712;28;19987;-73
2023/04/19 09:27:28;;;;;;;;;;;11.10;72.10;;;;;;5020562;28;19928;-75
2023/04/19 09:29:55;;;;;;;;;;;11.10;70.50;;;;;;5017603;28;19909;-72
2023/04/19 09:32:21;;;;;;;;;;;11.20;70.50;;;;;;5023459;28;19905;-73
2023/04/19 09:34:50;;;;;;;;;;;11.20;71.90;;;;;;5020054;28;19917;-73
2023/04/19 09:37:16;;;;;;;;;;;11.30;71.10;;;;;;5016210;28;20431;-73
2023/04/19 09:39:41;;;;;;;;;;;11.40;66.60;;;;;;5017542;28;19909;-72
2023/04/19 09:42:07;;;;;;;;;;;11.40;68.50;;;;;;5015576;28;19936;-73
2023/04/19 09:44:34;;;;;;;;;;;11.40;67.70;;;;;;5017725;28;19909;-78
2023/04/19 09:47:00;;;;;;;;;;;11.50;65.00;;;;;;5016612;28;19916;-73
2023/04/19 09:49:26;;;;;;;;;;;11.50;63.40;;;;;;5018860;28;20287;-72
2023/04/19 09:51:55;;;;;;;;;;;11.50;63.70;;;;;;5021857;28;19936;-73
2023/04/19 09:54:22;;;;;;;;;;;11.50;63.10;;;;;;5027202;28;19920;-74
2023/04/19 09:56:48;;;;;;;;;;;11.60;63.10;;;;;;5027134;28;19905;-78
2023/04/19 09:59:14;;;;;;;;;;;11.60;62.50;;;;;;5022371;28;19959;-73
2023/04/19 10:01:42;;;;;;;;;;;11.70;62.30;;;;;;5021897;28;20006;-71
2023/04/19 10:04:20;;;;;;;;;;;11.80;56.40;;;;;;5020947;28;20288;-74
2023/04/19 10:06:47;;;;;;;;;;;11.80;56.30;;;;;;5022059;28;20396;-72
2023/04/19 10:09:12;;;;;;;;;;;11.80;55.80;;;;;;5022440;28;19917;-75
2023/04/19 10:11:39;;;;;;;;;;;11.70;57.30;;;;;;5022257;28;19917;-75
2023/04/19 10:14:06;;;;;;;;;;;11.70;51.10;;;;;;5019859;28;19924;-72
2023/04/19 10:16:32;;;;;;;;;;;11.70;51.20;;;;;;5020604;28;19920;-73
2023/04/19 10:18:58;;;;;;;;;;;11.80;51.90;;;;;;5015089;28;19909;-72
2023/04/19 10:21:26;;;;;;;;;;;11.80;50.30;;;;;;5021654;28;20030;-73
2023/04/19 10:23:52;;;;;;;;;;;11.90;49.60;;;;;;5025952;28;19928;-73
2023/04/19 10:26:18;;;;;;;;;;;11.90;47.90;;;;;;5023358;28;19947;-73
2023/04/19 10:28:43;;;;;;;;;;;11.90;49.10;;;;;;5019241;28;19944;-75
2023/04/19 10:31:12;;;;;;;;;;;12.00;47.30;;;;;;5018049;28;19916;-74
2023/04/19 10:33:38;;;;;;;;;;;11.90;50.20;;;;;;5016803;28;20401;-73
2023/04/19 10:36:07;;;;;;;;;;;12.00;48.50;;;;;;5016708;28;20000;-77
2023/04/19 10:38:42;;;;;;;;;;;12.00;50.20;;;;;;5016547;28;19913;-75
2023/04/19 10:41:10;;;;;;;;;;;12.00;47.40;;;;;;5024639;28;20330;-73
2023/04/19 10:43:37;;;;;;;;;;;11.90;47.10;;;;;;5025722;28;19924;-75
2023/04/19 10:46:09;;;;;;;;;;;12.00;46.70;;;;;;5016271;28;19909;-74
2023/04/19 10:48:37;;;;;;;;;;;12.00;47.00;;;;;;5017227;28;19925;-71
2023/04/19 10:51:19;;;;;;;;;;;12.00;48.50;;;;;;5021540;28;19920;-72
2023/04/19 10:53:50;;;;;;;;;;;12.10;48.50;;;;;;5023074;28;19929;-75
2023/04/19 10:56:17;;;;;;;;;;;12.30;45.90;;;;;;5021370;28;19909;-72
2023/04/19 10:59:01;;;;;;;;;;;12.20;45.10;;;;;;5018815;28;19963;-71
2023/04/19 11:01:45;;;;;;;;;;;12.30;44.30;;;;;;5001359;28;19913;-72
2023/04/19 11:04:12;;;;;;;;;;;12.30;43.80;;;;;;5039990;28;19920;-80
2023/04/19 11:06:56;;;;;;;;;;;12.50;43.30;;;;;;5018550;28;19917;-72
2023/04/19 11:09:33;;;;;;;;;;;12.60;43.60;;;;;;5030848;28;20289;-75
2023/04/19 11:11:59;;;;;;;;;;;13.40;41.40;;;;;;5020362;28;19931;-74
2023/04/19 11:14:28;;;;;;;;;;;14.30;38.90;;;;;;5019810;28;19909;-72
2023/04/19 11:16:54;;;;;;;;;;;15.10;38.40;;;;;;5001511;28;19936;-71
2023/04/19 11:19:20;;;;;;;;;;;15.80;37.40;;;;;;5019200;28;19935;-72
2023/04/19 11:21:46;;;;;;;;;;;16.40;37.80;;;;;;5021330;28;19971;-72
2023/04/19 11:24:14;;;;;;;;;;;16.90;34.90;;;;;;5031381;28;19964;-72
2023/04/19 11:26:47;;;;;;;;;;;17.60;35.30;;;;;;5024635;28;19952;-81
2023/04/19 11:29:13;;;;;;;;;;;17.90;35.40;;;;;;5026507;28;19920;-73
2023/04/19 11:31:39;;;;;;;;;;;18.90;34.50;;;;;;5028029;28;19909;-70
2023/04/19 11:34:04;;;;;;;;;;;18.70;32.70;;;;;;5023181;28;19917;-77
2023/04/19 11:36:35;;;;;;;;;;;18.70;31.80;;;;;;5020827;28;20333;-76
2023/04/19 11:39:03;;;;;;;;;;;18.40;31.70;;;;;;5019881;28;19971;-74
2023/04/19 11:41:35;;;;;;;;;;;18.90;31.70;;;;;;5021733;28;19932;-72
2023/04/19 11:44:01;;;;;;;;;;;17.50;32.70;;;;;;5017026;28;19913;-72
2023/04/19 11:46:27;;;;;;;;;;;16.90;33.80;;;;;;5020908;28;19963;-73
2023/04/19 11:48:53;;;;;;;;;;;16.60;35.10;;;;;;5020945;28;19913;-73
2023/04/19 11:51:19;;;;;;;;;;;16.60;33.50;;;;;;5019547;28;20292;-74
2023/04/19 11:53:45;;;;;;;;;;;16.10;34.80;;;;;;5022118;28;20000;-73
2023/04/19 11:56:14;;;;;;;;;;;16.20;34.20;;;;;;5019263;28;19910;-74
2023/04/19 11:58:42;;;;;;;;;;;16.10;35.00;;;;;;5022636;28;19916;-75
2023/04/19 12:01:09;;;;;;;;;;;16.00;34.80;;;;;;5007573;28;20008;-72
2023/04/19 12:03:40;;;;;;;;;;;15.60;35.20;;;;;;5016981;28;20459;-72
2023/04/19 12:06:09;;;;;;;;;;;15.60;37.10;;;;;;5019663;28;19916;-71
2023/04/19 12:08:36;;;;;;;;;;;15.60;35.50;;;;;;4998147;28;19986;-72
2023/04/19 12:11:02;;;;;;;;;;;15.30;35.20;;;;;;5019581;28;19922;-74
2023/04/19 12:13:29;;;;;;;;;;;15.40;35.40;;;;;;5017933;28;19916;-72
2023/04/19 12:15:55;;;;;;;;;;;15.20;35.00;;;;;;5017656;28;20430;-74
2023/04/19 12:18:21;;;;;;;;;;;15.40;35.40;;;;;;5016809;28;19909;-72
2023/04/19 12:20:49;;;;;;;;;;;15.90;35.10;;;;;;5018968;28;19909;-75
2023/04/19 12:23:15;;;;;;;;;;;16.20;33.70;;;;;;5016688;28;19909;-75
2023/04/19 12:25:42;;;;;;;;;;;16.60;34.10;;;;;;5018654;28;20017;-71
2023/04/19 12:28:07;;;;;;;;;;;16.90;34.30;;;;;;5016560;28;19912;-74
2023/04/19 12:30:36;;;;;;;;;;;17.00;35.10;;;;;;5017774;28;19909;-72
2023/04/19 12:33:02;;;;;;;;;;;16.50;34.00;;;;;;5020011;28;19913;-73
2023/04/19 12:35:27;;;;;;;;;;;16.90;34.00;;;;;;5017541;28;19909;-73
2023/04/19 12:37:54;;;;;;;;;;;17.00;33.70;;;;;;5018593;28;19947;-76
2023/04/19 12:40:20;;;;;;;;;;;17.50;33.40;;;;;;5016866;28;20275;-74
2023/04/19 12:42:46;;;;;;;;;;;18.40;32.40;;;;;;5019986;28;20424;-73
2023/04/19 12:45:13;;;;;;;;;;;18.00;33.20;;;;;;5016684;28;20047;-72
2023/04/19 12:47:40;;;;;;;;;;;18.60;31.80;;;;;;5012676;28;19914;-72
2023/04/19 12:50:06;;;;;;;;;;;19.00;31.50;;;;;;5014060;28;20308;-71
2023/04/19 12:52:32;;;;;;;;;;;18.20;32.90;;;;;;5014944;28;20015;-74
2023/04/19 12:54:59;;;;;;;;;;;18.00;33.10;;;;;;5014500;28;20003;-75
2023/04/19 12:57:24;;;;;;;;;;;18.70;32.50;;;;;;5014300;28;19913;-73
2023/04/19 12:59:51;;;;;;;;;;;18.90;31.60;;;;;;5016838;28;20361;-76
2023/04/19 13:02:16;;;;;;;;;;;18.80;32.50;;;;;;5016447;28;19924;-73
2023/04/19 13:04:42;;;;;;;;;;;19.00;33.00;;;;;;5022390;28;19913;-76
2023/04/19 13:07:08;;;;;;;;;;;18.50;32.70;;;;;;5024273;28;19970;-76
2023/04/19 13:09:33;;;;;;;;;;;18.40;33.30;;;;;;5014415;28;20004;-73
2023/04/19 13:12:00;;;;;;;;;;;18.30;33.50;;;;;;5051578;28;20007;-73
2023/04/19 13:14:26;;;;;;;;;;;18.70;33.70;;;;;;4997778;28;20341;-74
2023/04/19 13:16:52;;;;;;;;;;;20.00;31.50;;;;;;5018701;28;19909;-72
2023/04/19 13:19:17;;;;;;;;;;;19.60;31.40;;;;;;5015004;28;20008;-72
2023/04/19 13:21:43;;;;;;;;;;;18.70;31.80;;;;;;5014349;28;19917;-72
2023/04/19 13:24:09;;;;;;;;;;;18.60;31.90;;;;;;5013937;28;20108;-75
2023/04/19 13:26:34;;;;;;;;;;;19.00;31.90;;;;;;5009475;28;19995;-73
2023/04/19 13:29:00;;;;;;;;;;;20.30;31.10;;;;;;5014790;28;19909;-72
2023/04/19 13:31:26;;;;;;;;;;;20.30;30.90;;;;;;5011309;28;19918;-72
2023/04/19 13:33:52;;;;;;;;;;;18.80;31.20;;;;;;5012863;28;19914;-73
2023/04/19 13:36:17;;;;;;;;;;;17.90;31.70;;;;;;5007138;28;19917;-73
2023/04/19 13:38:43;;;;;;;;;;;16.80;32.30;;;;;;4999409;28;19928;-77
2023/04/19 13:41:09;;;;;;;;;;;16.40;33.60;;;;;;4999815;28;20016;-72
2023/04/19 13:43:34;;;;;;;;;;;17.60;33.20;;;;;;5010949;28;20336;-72
2023/04/19 13:46:00;;;;;;;;;;;18.40;32.20;;;;;;5012907;28;19924;-72
2023/04/19 13:48:27;;;;;;;;;;;19.20;31.80;;;;;;5012089;28;19983;-72
2023/04/19 13:50:56;;;;;;;;;;;19.00;29.80;;;;;;5014944;28;19960;-71
2023/04/19 13:53:23;;;;;;;;;;;19.60;30.00;;;;;;5047677;28;20384;-72
2023/04/19 13:55:49;;;;;;;;;;;19.30;30.10;;;;;;5014384;28;19913;-79
2023/04/19 13:58:15;;;;;;;;;;;18.20;30.80;;;;;;5013534;28;19917;-76
2023/04/19 14:00:41;;;;;;;;;;;16.90;32.00;;;;;;5009420;28;19917;-76
2023/04/19 14:03:06;;;;;;;;;;;16.80;32.30;;;;;;5008689;28;20336;-72
2023/04/19 14:05:32;;;;;;;;;;;16.90;32.50;;;;;;5013017;28;19913;-73
2023/04/19 14:07:58;;;;;;;;;;;16.20;33.00;;;;;;5017361;28;19913;-73
2023/04/19 14:10:23;;;;;;;;;;;15.40;32.70;;;;;;5013522;28;20012;-72
2023/04/19 14:12:51;;;;;;;;;;;15.30;33.40;;;;;;5010480;28;20040;-72
2023/04/19 14:15:18;;;;;;;;;;;14.70;34.60;;;;;;5022095;28;20443;-72
2023/04/19 14:17:43;;;;;;;;;;;14.80;35.10;;;;;;5017585;28;20415;-72
2023/04/19 14:20:10;;;;;;;;;;;14.50;34.30;;;;;;5015359;28;19913;-72